Time;durP1;ratioP1;P1;durP2;ratioP2;P2;SDS_P1;SDS_P2;PMS_P1;PMS_P2;Temp;Humidity;BMP_temperature;BMP_pressure;BME280_temperature;BME280_humidity;BME280_pressure;Samples;Min_cycle;Max_cycle;Signal;HPM_P1;HPM_P2
2023/12/07 00:14:19;;;;;;;17.83;7.57;;;;;;;;;;4707387;30;20104;-81
2023/12/07 00:17:57;;;;;;;16.88;6.78;;;;;;;;;;4704678;30;20048;-80
2023/12/07 00:20:26;;;;;;;19.75;7.50;;;;;;;;;;4705559;30;21840;-79
2023/12/07 00:22:56;;;;;;;16.67;7.30;;;;;;;;;;4705433;30;20055;-79
2023/12/07 00:25:25;;;;;;;19.65;8.18;;;;;;;;;;4685989;30;20286;-79
2023/12/07 00:27:54;;;;;;;23.40;9.10;;;;;;;;;;4694335;30;20072;-78
2023/12/07 00:30:23;;;;;;;21.42;8.32;;;;;;;;;;4691040;30;23089;-78
2023/12/07 00:32:51;;;;;;;21.10;8.63;;;;;;;;;;4687748;30;20555;-78
2023/12/07 00:35:22;;;;;;;17.55;7.10;;;;;;;;;;4706701;30;20060;-77
2023/12/07 00:37:51;;;;;;;20.65;7.05;;;;;;;;;;4725473;30;20060;-77
2023/12/07 00:40:20;;;;;;;15.65;6.90;;;;;;;;;;4738201;29;20059;-77
2023/12/07 00:42:52;;;;;;;19.10;7.18;;;;;;;;;;4764299;29;20246;-77
2023/12/07 00:45:21;;;;;;;19.20;7.28;;;;;;;;;;4778231;29;20538;-77
2023/12/07 00:47:50;;;;;;;21.73;8.32;;;;;;;;;;4792622;29;20738;-77
2023/12/07 00:50:18;;;;;;;21.73;8.57;;;;;;;;;;4819418;29;20061;-77
2023/12/07 00:52:48;;;;;;;29.95;12.23;;;;;;;;;;4813985;29;20611;-77
2023/12/07 00:55:17;;;;;;;22.73;9.65;;;;;;;;;;4815360;29;22452;-77
2023/12/07 00:57:46;;;;;;;21.65;9.50;;;;;;;;;;4800964;29;20068;-78
2023/12/07 01:00:15;;;;;;;18.35;8.05;;;;;;;;;;4818493;29;20108;-78
2023/12/07 01:02:44;;;;;;;20.20;7.60;;;;;;;;;;4800697;29;20050;-78
2023/12/07 01:05:13;;;;;;;21.58;9.88;;;;;;;;;;4809749;29;20068;-78
2023/12/07 01:07:42;;;;;;;14.35;5.95;;;0.90;99.90;;;;;;4816355;29;20042;-80
2023/12/07 01:10:12;;;;;;;18.08;7.75;;;0.80;99.90;;;;;;4839958;29;20065;-80
2023/12/07 01:12:41;;;;;;;14.55;6.68;;;0.80;99.90;;;;;;4878308;29;20135;-81
2023/12/07 01:15:10;;;;;;;15.73;7.20;;;-0.60;99.90;;;;;;4896771;29;20214;-80
2023/12/07 01:17:39;;;;;;;16.35;6.78;;;-0.10;99.90;;;;;;4874591;29;20069;-80
2023/12/07 01:20:12;;;;;;;14.20;6.57;;;0.70;99.90;;;;;;4873144;29;20052;-80
2023/12/07 01:22:41;;;;;;;16.40;6.72;;;0.90;99.90;;;;;;4882632;29;20102;-79
2023/12/07 01:25:13;;;;;;;16.42;6.35;;;0.80;99.90;;;;;;4882021;29;20069;-78
2023/12/07 01:27:42;;;;;;;17.50;7.30;;;0.80;99.90;;;;;;4863647;29;20057;-79
2023/12/07 01:30:11;;;;;;;21.70;9.13;;;1.20;99.90;;;;;;4841061;29;20313;-78
2023/12/07 01:32:39;;;;;;;19.88;7.82;;;0.90;99.90;;;;;;4837625;29;20139;-77
2023/12/07 01:35:09;;;;;;;16.90;7.82;;;0.80;99.90;;;;;;4834968;29;20056;-77
2023/12/07 01:37:38;;;;;;;20.58;8.20;;;0.80;99.90;;;;;;4862580;29;20067;-76
2023/12/07 01:40:10;;;;;;;18.08;8.13;;;0.80;99.90;;;;;;4862955;29;20145;-76
2023/12/07 01:42:40;;;;;;;19.50;8.30;;;0.80;99.90;;;;;;4921287;28;20056;-76
2023/12/07 01:45:09;;;;;;;19.05;7.32;;;0.90;99.90;;;;;;4903449;29;20055;-77
2023/12/07 01:47:38;;;;;;;22.33;8.10;;;0.80;99.90;;;;;;4900922;29;20054;-76
2023/12/07 01:50:08;;;;;;;16.05;7.07;;;0.80;99.90;;;;;;4903013;29;20067;-75
2023/12/07 01:52:39;;;;;;;16.30;7.88;;;0.80;99.90;;;;;;4919238;28;20055;-76
2023/12/07 01:55:11;;;;;;;14.30;6.28;;;0.80;99.90;;;;;;4899796;29;20495;-76
2023/12/07 01:57:42;;;;;;;16.52;6.32;;;0.80;99.90;;;;;;4900999;29;20746;-76
2023/12/07 02:00:13;;;;;;;13.45;6.20;;;0.80;99.90;;;;;;4919679;28;20047;-76
2023/12/07 02:02:42;;;;;;;14.65;5.70;;;0.70;99.90;;;;;;4917723;28;20146;-76
2023/12/07 02:05:10;;;;;;;15.80;6.22;;;0.80;99.90;;;;;;4899904;29;20055;-76
2023/12/07 02:07:41;;;;;;;16.70;6.40;;;0.70;99.90;;;;;;4899186;29;20059;-77
2023/12/07 02:10:11;;;;;;;15.05;5.93;;;0.80;99.90;;;;;;4899078;29;20087;-77
2023/12/07 02:12:41;;;;;;;14.23;5.53;;;0.70;99.90;;;;;;4899966;29;20055;-76
2023/12/07 02:15:11;;;;;;;15.10;6.03;;;0.70;99.90;;;;;;4919222;28;20233;-77
2023/12/07 02:17:48;;;;;;;13.15;5.60;;;0.80;99.90;;;;;;4884604;29;20051;-77
2023/12/07 02:20:22;;;;;;;12.80;5.72;;;0.70;99.90;;;;;;4880752;29;20162;-77
2023/12/07 02:22:55;;;;;;;15.05;5.47;;;0.80;99.90;;;;;;4918556;28;20055;-77
2023/12/07 02:25:27;;;;;;;11.65;5.15;;;0.80;99.90;;;;;;4923810;28;20051;-77
2023/12/07 02:27:57;;;;;;;15.07;7.00;;;0.70;99.90;;;;;;4925381;29;20442;-77
2023/12/07 02:30:25;;;;;;;13.95;5.80;;;0.70;99.90;;;;;;4918622;28;20540;-77
2023/12/07 02:32:54;;;;;;;13.38;4.70;;;0.70;99.90;;;;;;4921888;28;20439;-78
2023/12/07 02:35:23;;;;;;;15.15;6.15;;;0.70;99.90;;;;;;4940561;28;20039;-78
2023/12/07 02:37:53;;;;;;;13.75;5.93;;;0.80;99.90;;;;;;4907000;28;20066;-78
2023/12/07 02:40:23;;;;;;;13.90;5.38;;;0.70;99.90;;;;;;4941296;28;20043;-78
2023/12/07 02:42:53;;;;;;;13.02;4.78;;;0.70;99.90;;;;;;4944560;28;22416;-77
2023/12/07 02:45:24;;;;;;;11.82;4.97;;;0.80;99.90;;;;;;4939823;28;20043;-77
2023/12/07 02:47:52;;;;;;;10.55;4.70;;;0.80;99.90;;;;;;4917025;28;20059;-78
2023/12/07 02:50:21;;;;;;;11.13;4.40;;;0.80;99.90;;;;;;4923657;28;20058;-77
2023/12/07 02:52:50;;;;;;;13.02;4.57;;;0.80;99.90;;;;;;4943210;28;20671;-77
2023/12/07 02:55:18;;;;;;;10.02;3.88;;;0.80;99.90;;;;;;4925411;28;20052;-77
2023/12/07 02:57:47;;;;;;;12.05;5.22;;;0.80;99.90;;;;;;4925280;28;20062;-78
2023/12/07 03:00:16;;;;;;;9.18;3.50;;;0.80;99.90;;;;;;4925977;28;20642;-78
2023/12/07 03:02:47;;;;;;;8.02;3.53;;;0.80;99.90;;;;;;4908090;28;21133;-78
2023/12/07 03:05:16;;;;;;;10.02;3.53;;;0.80;99.90;;;;;;4914883;28;20079;-77
2023/12/07 03:07:44;;;;;;;9.43;3.80;;;0.80;99.90;;;;;;4920209;28;20162;-77
2023/12/07 03:10:12;;;;;;;7.70;3.13;;;0.80;99.90;;;;;;4903282;28;20065;-77
2023/12/07 03:12:41;;;;;;;7.82;3.22;;;0.80;99.90;;;;;;4922311;28;20418;-76
2023/12/07 03:15:10;;;;;;;8.23;3.10;;;0.80;99.90;;;;;;4902467;28;20482;-76
2023/12/07 03:17:38;;;;;;;7.57;3.33;;;0.80;99.90;;;;;;4899062;28;20063;-77
2023/12/07 03:20:10;;;;;;;7.53;3.03;;;0.80;99.90;;;;;;4917453;28;20107;-76
2023/12/07 03:22:39;;;;;;;6.55;3.38;;;0.80;99.90;;;;;;4902301;29;20071;-77
2023/12/07 03:25:08;;;;;;;7.70;2.90;;;0.80;99.90;;;;;;4871474;29;20591;-77
2023/12/07 03:27:36;;;;;;;6.60;2.90;;;0.80;99.90;;;;;;4887479;29;22705;-77
2023/12/07 03:30:07;;;;;;;7.03;3.30;;;0.80;99.90;;;;;;4884155;29;20090;-77
2023/12/07 03:32:35;;;;;;;10.90;4.38;;;0.80;99.90;;;;;;4882926;29;20056;-78
2023/12/07 03:35:04;;;;;;;9.15;4.15;;;0.80;99.90;;;;;;4905590;29;20146;-79
2023/12/07 03:37:34;;;;;;;7.72;3.58;;;0.80;99.90;;;;;;4885298;29;20052;-78
2023/12/07 03:40:04;;;;;;;6.35;2.35;;;0.80;99.90;;;;;;4891346;29;20063;-79
2023/12/07 03:42:33;;;;;;;6.50;3.05;;;0.80;99.90;;;;;;4900388;29;20066;-79
2023/12/07 03:45:23;;;;;;;8.38;3.42;;;0.80;99.90;;;;;;4902014;29;20590;-80
2023/12/07 03:47:52;;;;;;;9.40;3.80;;;0.80;99.90;;;;;;4905415;29;20050;-79
2023/12/07 03:50:21;;;;;;;12.27;5.10;;;0.70;99.90;;;;;;4924426;28;20063;-80
2023/12/07 03:52:51;;;;;;;9.35;4.57;;;0.20;99.90;;;;;;4924054;28;20135;-80
2023/12/07 03:55:20;;;;;;;11.65;4.85;;;1.00;99.90;;;;;;4907139;28;20087;-79
2023/12/07 03:57:49;;;;;;;8.75;4.20;;;0.80;99.90;;;;;;4923134;28;20036;-79
2023/12/07 04:00:18;;;;;;;7.90;3.40;;;-0.10;99.90;;;;;;4920485;29;20043;-79
2023/12/07 04:02:47;;;;;;;8.55;3.55;;;0.90;99.90;;;;;;4926657;28;20059;-80
2023/12/07 04:05:16;;;;;;;8.75;4.22;;;-0.40;99.90;;;;;;4925205;28;20027;-80
2023/12/07 04:07:45;;;;;;;9.65;4.13;;;0.50;99.90;;;;;;4934703;29;20044;-80
2023/12/07 04:10:15;;;;;;;9.55;4.25;;;0.80;99.90;;;;;;4921970;28;20159;-79
2023/12/07 04:12:44;;;;;;;9.20;4.32;;;0.80;99.90;;;;;;4919456;29;20651;-79
2023/12/07 04:15:14;;;;;;;8.55;3.75;;;0.80;99.90;;;;;;4899992;29;20067;-79
2023/12/07 04:17:46;;;;;;;8.93;3.78;;;0.80;99.90;;;;;;4891704;29;22751;-79
2023/12/07 04:20:15;;;;;;;6.57;3.10;;;0.70;99.90;;;;;;4915180;29;20067;-78
2023/12/07 04:22:45;;;;;;;8.68;3.67;;;0.80;99.90;;;;;;4904368;29;20059;-76
2023/12/07 04:25:15;;;;;;;10.40;4.35;;;0.80;99.90;;;;;;4911832;29;20067;-77
2023/12/07 04:27:44;;;;;;;9.15;3.63;;;0.80;99.90;;;;;;4901853;29;20059;-76
2023/12/07 04:30:13;;;;;;;9.70;4.25;;;0.80;99.90;;;;;;4884611;29;20063;-77
2023/12/07 04:32:41;;;;;;;10.10;4.57;;;0.70;99.90;;;;;;4886369;29;20122;-75
2023/12/07 04:35:10;;;;;;;8.68;4.15;;;0.80;99.90;;;;;;4888496;29;20044;-76
2023/12/07 04:37:39;;;;;;;10.05;4.45;;;0.80;99.90;;;;;;4901063;29;20057;-76
2023/12/07 04:40:10;;;;;;;9.60;4.22;;;0.80;99.90;;;;;;4917622;29;20055;-75
2023/12/07 04:42:40;;;;;;;9.95;4.45;;;0.80;99.90;;;;;;4905901;29;20723;-77
2023/12/07 04:45:10;;;;;;;12.85;4.47;;;0.80;99.90;;;;;;4885707;29;20511;-77
2023/12/07 04:47:38;;;;;;;11.80;5.10;;;0.80;99.90;;;;;;4888242;29;20573;-76
2023/12/07 04:50:07;;;;;;;12.85;5.60;;;0.80;99.90;;;;;;4908430;29;20048;-78
2023/12/07 04:52:36;;;;;;;10.27;5.38;;;0.80;99.90;;;;;;4900461;29;20195;-77
2023/12/07 04:55:06;;;;;;;13.02;5.50;;;0.80;99.90;;;;;;4889936;29;20062;-77
2023/12/07 04:57:34;;;;;;;13.23;5.13;;;0.80;99.90;;;;;;4894086;29;20127;-77
2023/12/07 05:00:09;;;;;;;11.07;5.40;;;0.80;99.90;;;;;;4890916;29;22611;-77
2023/12/07 05:02:38;;;;;;;11.48;5.05;;;0.80;99.90;;;;;;4894630;29;20647;-78
2023/12/07 05:05:07;;;;;;;10.90;5.00;;;0.80;99.90;;;;;;4903066;29;20071;-79
2023/12/07 05:07:35;;;;;;;13.95;5.97;;;0.80;99.90;;;;;;4916675;29;20083;-78
2023/12/07 05:10:04;;;;;;;12.85;5.53;;;0.80;99.90;;;;;;4908502;29;20056;-78
2023/12/07 05:12:33;;;;;;;13.50;6.60;;;0.80;99.90;;;;;;4904454;29;20055;-78
2023/12/07 05:15:06;;;;;;;15.55;7.43;;;0.80;99.90;;;;;;4905486;29;20055;-78
2023/12/07 05:17:35;;;;;;;16.83;7.85;;;0.80;99.90;;;;;;4915469;29;20040;-78
2023/12/07 05:20:05;;;;;;;15.85;7.53;;;0.80;99.90;;;;;;4926279;29;20059;-78
2023/12/07 05:22:34;;;;;;;17.13;7.78;;;0.80;99.90;;;;;;4903261;28;22666;-78
2023/12/07 05:25:02;;;;;;;19.33;8.35;;;0.80;99.90;;;;;;4945234;28;20039;-79
2023/12/07 05:27:33;;;;;;;18.58;7.68;;;0.80;99.90;;;;;;4873307;29;20433;-78
2023/12/07 05:30:02;;;;;;;22.23;8.98;;;0.80;99.90;;;;;;4850750;29;20068;-77
2023/12/07 05:32:32;;;;;;;23.58;9.48;;;0.80;99.90;;;;;;4863678;29;20126;-78
2023/12/07 05:35:00;;;;;;;24.20;9.00;;;0.80;99.90;;;;;;4852048;29;20053;-78
2023/12/07 05:37:29;;;;;;;21.85;9.57;;;0.80;99.90;;;;;;4866711;29;20064;-78
2023/12/07 05:39:57;;;;;;;18.30;8.00;;;0.80;99.90;;;;;;4864135;29;20060;-78
2023/12/07 05:42:26;;;;;;;23.73;9.80;;;0.80;99.90;;;;;;4849546;29;20056;-77
2023/12/07 05:44:54;;;;;;;18.17;8.73;;;0.80;99.90;;;;;;4863686;29;20057;-78
2023/12/07 05:47:23;;;;;;;20.30;9.23;;;0.80;99.90;;;;;;4861754;29;20711;-77
2023/12/07 05:49:53;;;;;;;18.00;8.20;;;0.80;99.90;;;;;;4865099;29;20184;-78
2023/12/07 05:52:21;;;;;;;16.88;7.97;;;0.80;99.90;;;;;;4848624;29;22361;-77
2023/12/07 05:54:50;;;;;;;19.75;8.60;;;0.80;99.90;;;;;;4863738;29;20159;-78
2023/12/07 05:57:19;;;;;;;21.13;8.65;;;0.80;99.90;;;;;;4859299;29;20052;-77
2023/12/07 05:59:48;;;;;;;19.30;8.43;;;0.80;99.90;;;;;;4898070;28;22655;-77
2023/12/07 06:02:16;;;;;;;20.30;8.68;;;0.80;99.90;;;;;;4909566;28;20866;-77
2023/12/07 06:04:44;;;;;;;25.42;9.02;;;0.80;99.90;;;;;;4921925;28;20043;-77
2023/12/07 06:07:14;;;;;;;21.88;8.90;;;0.80;99.90;;;;;;4908346;28;20058;-77
2023/12/07 06:09:43;;;;;;;16.98;7.90;;;0.80;99.90;;;;;;4904212;28;20086;-78
2023/12/07 06:12:12;;;;;;;15.43;7.72;;;0.80;99.90;;;;;;4910415;28;22580;-76
2023/12/07 06:14:41;;;;;;;17.98;7.00;;;0.80;99.90;;;;;;4901139;28;21133;-77
2023/12/07 06:17:11;;;;;;;18.73;8.18;;;0.80;99.90;;;;;;4914610;28;20066;-77
2023/12/07 06:19:39;;;;;;;20.38;8.48;;;0.80;99.90;;;;;;4898970;28;22534;-76
2023/12/07 06:22:07;;;;;;;22.88;9.68;;;0.80;99.90;;;;;;4916747;28;20047;-76
2023/12/07 06:24:37;;;;;;;21.65;9.15;;;1.00;99.90;;;;;;4914599;28;20114;-77
2023/12/07 06:27:06;;;;;;;21.50;9.18;;;0.80;99.90;;;;;;4899463;28;20113;-76
2023/12/07 06:29:35;;;;;;;16.88;8.00;;;0.80;99.90;;;;;;4916533;28;20073;-77
2023/12/07 06:32:03;;;;;;;19.02;9.07;;;0.80;99.90;;;;;;4904909;28;20585;-76
2023/12/07 06:34:32;;;;;;;15.98;7.93;;;0.80;99.90;;;;;;4907222;28;20055;-76
2023/12/07 06:37:00;;;;;;;18.00;8.50;;;0.80;99.90;;;;;;4915332;28;20779;-77
2023/12/07 06:39:29;;;;;;;17.75;8.18;;;0.80;99.90;;;;;;4915647;28;20055;-76
2023/12/07 06:41:59;;;;;;;19.92;9.30;;;0.80;99.90;;;;;;4899293;28;20051;-77
2023/12/07 06:44:28;;;;;;;18.45;8.55;;;0.90;99.90;;;;;;4898021;28;20051;-77
2023/12/07 06:46:56;;;;;;;15.73;8.20;;;0.90;99.90;;;;;;4905540;28;20047;-77
2023/12/07 06:49:25;;;;;;;21.40;10.52;;;0.90;99.90;;;;;;4920209;28;20055;-77
2023/12/07 06:52:10;;;;;;;31.30;12.45;;;0.90;99.90;;;;;;4904522;28;20062;-77
2023/12/07 06:54:39;;;;;;;28.42;12.02;;;0.90;99.90;;;;;;4903614;28;20066;-77
2023/12/07 06:57:09;;;;;;;24.25;10.50;;;0.90;99.90;;;;;;4918254;28;20039;-77
2023/12/07 06:59:37;;;;;;;25.48;10.05;;;0.90;99.90;;;;;;4930955;28;20097;-77
2023/12/07 07:02:05;;;;;;;26.45;10.57;;;0.90;99.90;;;;;;4915424;28;20882;-77
2023/12/07 07:04:34;;;;;;;25.38;10.40;;;0.90;99.90;;;;;;4902363;28;20054;-77
2023/12/07 07:07:02;;;;;;;28.92;11.43;;;0.90;99.90;;;;;;4926882;28;20039;-77
2023/12/07 07:09:31;;;;;;;25.95;12.32;;;1.00;99.90;;;;;;4939565;28;20574;-77
2023/12/07 07:11:59;;;;;;;34.85;15.48;;;0.90;99.90;;;;;;4916877;28;20090;-78
2023/12/07 07:14:30;;;;;;;25.00;13.68;;;1.00;99.90;;;;;;4914429;28;20129;-77
2023/12/07 07:16:58;;;;;;;21.50;11.57;;;1.00;99.90;;;;;;4917602;28;20626;-77
2023/12/07 07:19:26;;;;;;;21.35;11.65;;;1.00;99.90;;;;;;4927418;28;20562;-77
2023/12/07 07:21:55;;;;;;;18.42;9.07;;;1.00;99.90;;;;;;4913387;28;20055;-77
2023/12/07 07:24:23;;;;;;;14.80;7.45;;;1.00;99.90;;;;;;4893160;29;22660;-77
2023/12/07 07:26:52;;;;;;;20.30;8.38;;;1.10;99.90;;;;;;4877407;29;20051;-77
2023/12/07 07:29:21;;;;;;;22.10;9.30;;;1.00;99.90;;;;;;4894939;29;20043;-77
2023/12/07 07:31:50;;;;;;;18.00;8.50;;;1.10;99.90;;;;;;4898144;29;20134;-78
2023/12/07 07:34:19;;;;;;;21.05;10.15;;;1.30;99.90;;;;;;4897445;29;22822;-77
2023/12/07 07:36:49;;;;;;;18.70;9.27;;;1.00;99.90;;;;;;4881563;29;20059;-78
2023/12/07 07:39:18;;;;;;;17.42;9.00;;;1.10;99.90;;;;;;4892214;29;20060;-77
2023/12/07 07:41:46;;;;;;;19.40;8.82;;;1.10;99.90;;;;;;4897903;29;20056;-78
2023/12/07 07:44:15;;;;;;;29.55;11.38;;;1.00;99.90;;;;;;4898900;29;22529;-77
2023/12/07 07:46:43;;;;;;;22.95;11.20;;;1.00;99.90;;;;;;4879870;29;20055;-78
2023/12/07 07:49:13;;;;;;;25.70;11.77;;;1.00;99.90;;;;;;4898773;29;22636;-77
2023/12/07 07:51:42;;;;;;;38.05;13.18;;;1.00;99.90;;;;;;4899348;29;20051;-78
2023/12/07 07:54:10;;;;;;;47.40;17.13;;;1.00;99.90;;;;;;4908463;29;20442;-79
2023/12/07 07:56:39;;;;;;;80.90;29.00;;;1.00;99.90;;;;;;4898916;29;20054;-79
2023/12/07 07:59:07;;;;;;;80.50;30.38;;;1.10;99.90;;;;;;4903652;29;20048;-79
2023/12/07 08:01:35;;;;;;;55.67;24.58;;;1.10;99.90;;;;;;4887909;29;20058;-79
2023/12/07 08:04:04;;;;;;;39.92;19.27;;;1.10;99.90;;;;;;4898978;29;20543;-79
2023/12/07 08:06:35;;;;;;;34.03;15.63;;;1.10;99.90;;;;;;4904869;29;20685;-78
2023/12/07 08:09:05;;;;;;;28.97;14.30;;;1.10;99.90;;;;;;4888254;29;20060;-79
2023/12/07 08:11:33;;;;;;;24.80;13.18;;;1.10;99.90;;;;;;4902850;29;20628;-77
2023/12/07 08:14:02;;;;;;;25.63;12.73;;;1.10;99.90;;;;;;4909474;29;20426;-78
2023/12/07 08:16:30;;;;;;;24.80;12.18;;;1.20;99.90;;;;;;4882064;29;20054;-76
2023/12/07 08:18:58;;;;;;;20.98;10.73;;;1.10;99.90;;;;;;4901823;29;20066;-78
2023/12/07 08:21:29;;;;;;;22.98;10.48;;;1.20;99.90;;;;;;4901593;29;20723;-77
2023/12/07 08:24:00;;;;;;;67.75;27.77;;;1.20;99.90;;;;;;4916893;28;20266;-77
2023/12/07 08:26:28;;;;;;;103.07;46.85;;;1.20;99.90;;;;;;4920707;28;20051;-77
2023/12/07 08:28:56;;;;;;;42.95;21.10;;;1.30;99.90;;;;;;4917145;28;20121;-77
2023/12/07 08:31:25;;;;;;;67.18;25.95;;;1.30;99.90;;;;;;4904005;28;20154;-78
2023/12/07 08:33:53;;;;;;;62.00;27.02;;;1.40;99.90;;;;;;4904293;28;20979;-77
2023/12/07 08:36:22;;;;;;;41.63;18.30;;;1.50;99.90;;;;;;4912661;28;20055;-77
2023/12/07 08:38:51;;;;;;;32.83;14.95;;;1.40;99.90;;;;;;4921647;28;20066;-77
2023/12/07 08:41:21;;;;;;;29.15;13.68;;;1.50;99.90;;;;;;4910131;28;20051;-78
2023/12/07 08:43:49;;;;;;;28.55;14.50;;;1.40;99.90;;;;;;4929769;28;20058;-77
2023/12/07 08:46:18;;;;;;;27.90;13.88;;;1.40;99.90;;;;;;4920544;28;20062;-77
2023/12/07 08:48:46;;;;;;;22.80;12.05;;;1.50;99.90;;;;;;4920823;28;20049;-77
2023/12/07 08:51:15;;;;;;;36.33;18.88;;;1.60;99.90;;;;;;4906172;28;20051;-77
2023/12/07 08:53:43;;;;;;;28.05;15.30;;;1.70;99.90;;;;;;4923304;28;20051;-78
2023/12/07 08:56:12;;;;;;;30.23;13.10;;;1.80;99.90;;;;;;4924011;28;22022;-77
2023/12/07 08:58:42;;;;;;;25.10;13.05;;;1.80;99.90;;;;;;4903642;28;20051;-77
2023/12/07 09:01:11;;;;;;;32.90;15.70;;;2.70;99.90;;;;;;4908599;28;20059;-77
2023/12/07 09:03:57;;;;;;;34.47;16.65;;;2.00;99.90;;;;;;4906643;28;20062;-77
2023/12/07 09:06:25;;;;;;;33.50;16.20;;;2.10;99.90;;;;;;4931099;28;20055;-77
2023/12/07 09:08:55;;;;;;;37.05;16.98;;;2.10;99.90;;;;;;4920078;28;20795;-77
2023/12/07 09:11:23;;;;;;;34.53;16.75;;;2.30;99.90;;;;;;4923569;28;20051;-77
2023/12/07 09:13:53;;;;;;;36.40;17.95;;;2.30;99.90;;;;;;4924218;28;20098;-77
2023/12/07 09:16:22;;;;;;;43.13;20.95;;;2.40;99.90;;;;;;4909842;28;22896;-77
2023/12/07 09:18:51;;;;;;;44.63;18.50;;;2.40;99.90;;;;;;4912880;28;20501;-77
2023/12/07 09:21:19;;;;;;;39.33;18.52;;;2.40;99.90;;;;;;4923865;28;20051;-77
2023/12/07 09:23:48;;;;;;;41.10;16.30;;;2.50;99.90;;;;;;4919639;29;20047;-77
2023/12/07 09:26:16;;;;;;;31.77;14.55;;;2.40;99.90;;;;;;4924545;28;20057;-77
2023/12/07 09:28:44;;;;;;;38.35;16.30;;;2.40;99.90;;;;;;4918106;29;20550;-77
2023/12/07 09:31:15;;;;;;;76.63;30.98;;;2.40;99.90;;;;;;4922857;28;20047;-76
2023/12/07 09:33:43;;;;;;;44.97;20.42;;;2.30;99.90;;;;;;4921515;28;20982;-76
2023/12/07 09:36:13;;;;;;;39.97;15.93;;;2.30;99.90;;;;;;4917773;28;20062;-78
2023/12/07 09:38:42;;;;;;;63.90;27.83;;;2.30;99.90;;;;;;4923420;28;20047;-77
2023/12/07 09:41:10;;;;;;;48.03;20.95;;;2.30;99.90;;;;;;4951089;29;20455;-77
2023/12/07 09:43:38;;;;;;;48.55;19.50;;;2.30;99.90;;;;;;4910252;28;20055;-78
2023/12/07 09:46:07;;;;;;;57.53;24.13;;;2.30;99.90;;;;;;4933622;28;20055;-78
2023/12/07 09:48:41;;;;;;;66.18;28.50;;;2.30;99.90;;;;;;4931155;28;20063;-78
2023/12/07 09:51:11;;;;;;;47.40;20.17;;;2.20;99.90;;;;;;4920764;28;20152;-78
2023/12/07 09:53:43;;;;;;;60.45;29.65;;;2.30;99.90;;;;;;4920228;28;20105;-78
2023/12/07 09:56:12;;;;;;;32.20;16.08;;;2.30;99.90;;;;;;4932373;28;20047;-80
2023/12/07 09:58:42;;;;;;;46.33;20.55;;;2.20;99.90;;;;;;4948132;29;20090;-79
2023/12/07 10:01:13;;;;;;;34.53;14.55;;;2.20;99.90;;;;;;4944240;28;20055;-80
2023/12/07 10:03:46;;;;;;;36.20;15.27;;;2.20;99.90;;;;;;4924202;28;21892;-80
2023/12/07 10:06:18;;;;;;;39.55;17.67;;;2.30;99.90;;;;;;4951430;28;20043;-80
2023/12/07 10:08:48;;;;;;;63.13;24.05;;;2.30;99.90;;;;;;4945507;28;20123;-80
2023/12/07 10:26:59;;;;;;;45.95;18.58;;;2.30;99.90;;;;;;4811932;29;20522;-79
2023/12/07 10:29:31;;;;;;;52.13;23.15;;;2.30;99.90;;;;;;4804224;29;20080;-79
2023/12/07 10:32:02;;;;;;;53.88;18.73;;;2.30;99.90;;;;;;4804870;29;20051;-79
2023/12/07 10:34:35;;;;;;;50.17;21.90;;;2.20;99.90;;;;;;4822078;29;20058;-78
2023/12/07 10:37:08;;;;;;;47.65;20.90;;;1.50;99.90;;;;;;4809245;29;20055;-79
2023/12/07 10:40:25;;;;;;;44.58;16.38;;;1.90;99.90;;;;;;4809489;29;20092;-80
2023/12/07 12:33:02;;;;;;;49.75;21.42;;;2.00;99.90;;;;;;4886028;29;20072;-81
2023/12/07 12:35:32;;;;;;;58.13;22.65;;;1.10;99.90;;;;;;4858283;29;20033;-81
2023/12/07 12:38:04;;;;;;;46.28;21.05;;;1.90;99.90;;;;;;4849157;29;20053;-81
2023/12/07 12:40:33;;;;;;;48.28;20.27;;;1.90;99.90;;;;;;4876247;29;20101;-81
2023/12/07 12:43:10;;;;;;;50.72;20.15;;;1.90;99.90;;;;;;4965834;23;20046;-80
2023/12/07 12:49:55;;;;;;;55.53;22.40;;;2.10;99.90;;;;;;4843949;29;20144;-80
2023/12/07 12:52:30;;;;;;;53.58;24.33;;;1.90;99.90;;;;;;4839613;29;20051;-81
2023/12/07 12:55:02;;;;;;;51.53;21.45;;;1.90;99.90;;;;;;4824369;29;20061;-81
2023/12/07 12:57:32;;;;;;;52.30;20.77;;;1.80;99.90;;;;;;4814327;29;20034;-79
2023/12/07 13:00:03;;;;;;;46.00;18.95;;;1.60;99.90;;;;;;4824435;29;20038;-81
2023/12/07 13:02:32;;;;;;;86.65;39.78;;;1.60;99.90;;;;;;4818624;29;20050;-80
2023/12/07 13:05:03;;;;;;;69.53;28.40;;;1.70;99.90;;;;;;4821563;29;20463;-80
2023/12/07 13:07:33;;;;;;;66.60;26.50;;;1.80;99.90;;;;;;4815756;29;20049;-80
2023/12/07 13:10:02;;;;;;;57.78;23.13;;;1.80;99.90;;;;;;4817240;29;20317;-80
2023/12/07 13:12:35;;;;;;;58.70;22.95;;;2.00;99.90;;;;;;4816733;29;20118;-79
2023/12/07 13:15:06;;;;;;;51.17;25.23;;;1.90;99.90;;;;;;4857353;29;20044;-79
2023/12/07 13:17:42;;;;;;;45.20;21.48;;;1.80;99.90;;;;;;4842884;29;20122;-79
2023/12/07 13:20:14;;;;;;;42.08;18.27;;;1.80;99.90;;;;;;4830040;29;20065;-78
2023/12/07 13:22:44;;;;;;;43.67;16.75;;;1.00;99.90;;;;;;4848844;29;20056;-78
2023/12/07 13:25:14;;;;;;;40.55;18.17;;;1.90;99.90;;;;;;4903950;29;20064;-78
2023/12/07 13:27:44;;;;;;;41.88;16.33;;;0.50;99.90;;;;;;4905107;29;20084;-79
2023/12/07 13:30:13;;;;;;;45.30;17.98;;;1.90;99.90;;;;;;4921926;29;20056;-78
2023/12/07 13:32:49;;;;;;;39.13;16.70;;;1.80;99.90;;;;;;4921655;29;20130;-81
2023/12/07 13:47:28;;;;;;;50.87;21.70;;;2.50;99.90;;;;;;5587558;23;20041;-82
2023/12/07 13:49:58;;;;;;;54.67;20.25;;;1.80;99.90;;;;;;4876139;29;20048;-81
2023/12/07 13:52:28;;;;;;;46.60;20.98;;;1.70;99.90;;;;;;4873899;29;20069;-83
2023/12/07 13:54:58;;;;;;;44.03;19.70;;;3.00;99.90;;;;;;4880417;29;20092;-84
2023/12/07 14:10:25;;;;;;;56.70;22.55;;;1.60;99.90;;;;;;5974628;23;20054;-84
2023/12/07 14:13:17;;;;;;;58.40;22.10;;;1.50;99.90;;;;;;4856898;29;20059;-83
2023/12/07 14:30:45;;;;;;;46.95;20.13;;;1.40;99.90;;;;;;5950306;23;20024;31
2023/12/07 14:33:18;;;;;;;54.92;23.98;;;1.40;99.90;;;;;;4853616;29;20058;-84
2023/12/07 14:35:48;;;;;;;56.63;23.73;;;1.40;99.90;;;;;;4858155;29;20092;-82
2023/12/07 14:38:18;;;;;;;52.40;24.02;;;1.30;99.90;;;;;;4874274;29;20054;-85
2023/12/07 14:40:48;;;;;;;57.05;25.27;;;1.30;99.90;;;;;;4862405;29;20077;-84
2023/12/07 14:43:20;;;;;;;57.92;26.05;;;1.30;99.90;;;;;;4853908;29;20049;-84
2023/12/07 14:45:52;;;;;;;57.17;24.80;;;1.30;99.90;;;;;;4836834;29;20045;-84
2023/12/07 14:48:24;;;;;;;60.13;24.95;;;1.30;99.90;;;;;;4852426;29;20058;-84
2023/12/07 14:51:02;;;;;;;62.45;25.33;;;1.30;99.90;;;;;;4847922;29;20034;-85
2023/12/07 14:53:40;;;;;;;62.00;26.85;;;1.30;99.90;;;;;;4845552;29;20178;-79
2023/12/07 14:56:51;;;;;;;61.13;26.40;;;1.40;99.90;;;;;;4832850;29;20038;-79
2023/12/07 14:59:45;;;;;;;62.78;26.80;;;1.20;99.90;;;;;;4775814;30;20038;-79
2023/12/07 15:02:32;;;;;;;53.95;26.20;;;0.60;99.90;;;;;;4766835;30;20121;-79
2023/12/07 15:05:32;;;;;;;67.78;28.55;;;1.20;99.90;;;;;;4776994;30;20040;-79
2023/12/07 15:08:17;;;;;;;64.88;26.90;;;0.60;99.90;;;;;;4740239;30;20057;-78
2023/12/07 15:10:52;;;;;;;60.80;27.27;;;1.20;99.90;;;;;;4718571;30;20061;-78
2023/12/07 15:13:22;;;;;;;59.58;27.00;;;1.10;99.90;;;;;;4705432;30;20058;-78
2023/12/07 15:15:54;;;;;;;62.78;26.75;;;1.10;99.90;;;;;;4708823;30;20056;-78
2023/12/07 15:18:23;;;;;;;61.10;25.45;;;1.10;99.90;;;;;;4708247;30;20069;-78
2023/12/07 15:20:56;;;;;;;56.95;26.63;;;1.10;99.90;;;;;;4692563;30;20061;-78
2023/12/07 15:23:28;;;;;;;62.05;26.55;;;1.10;99.90;;;;;;4703287;30;20067;-78
2023/12/07 15:25:57;;;;;;;79.22;32.42;;;1.10;99.90;;;;;;4709472;30;20057;-78
2023/12/07 15:28:27;;;;;;;68.97;31.30;;;1.10;99.90;;;;;;4707989;30;20057;-78
2023/12/07 15:30:57;;;;;;;76.88;34.05;;;1.10;99.90;;;;;;4690451;30;20141;-78
2023/12/07 15:33:28;;;;;;;83.95;33.50;;;1.10;99.90;;;;;;4735311;30;20569;-78
2023/12/07 15:36:02;;;;;;;78.57;32.85;;;1.10;99.90;;;;;;4744279;30;20053;-78
2023/12/07 15:38:34;;;;;;;151.25;54.42;;;1.20;99.90;;;;;;4786706;29;20667;-78
2023/12/07 15:41:04;;;;;;;187.10;66.60;;;1.10;99.90;;;;;;4785146;29;20051;-78
2023/12/07 15:43:31;;;;;;;133.30;49.60;;;1.10;99.90;;;;;;4799929;29;20046;-78
2023/12/07 15:46:03;;;;;;;115.82;47.80;;;1.00;99.90;;;;;;4814880;29;20063;-78
2023/12/07 15:48:32;;;;;;;122.68;51.05;;;1.00;99.90;;;;;;4804531;29;20507;-78
2023/12/07 15:51:02;;;;;;;117.93;51.95;;;1.10;99.90;;;;;;4826785;29;20470;-78
2023/12/07 15:53:31;;;;;;;98.68;40.83;;;2.00;99.90;;;;;;4826702;29;20050;-78
2023/12/07 15:56:02;;;;;;;108.20;43.83;;;1.10;99.90;;;;;;4825276;29;20085;-78
2023/12/07 15:58:31;;;;;;;94.47;38.15;;;1.00;99.90;;;;;;4806802;29;20062;-78
2023/12/07 16:01:01;;;;;;;101.53;42.55;;;1.10;99.90;;;;;;4807458;29;20047;-77
2023/12/07 16:03:30;;;;;;;102.15;44.22;;;1.40;99.90;;;;;;4819162;29;20054;-78
2023/12/07 16:06:03;;;;;;;109.35;45.85;;;1.10;99.90;;;;;;4802701;29;20058;-77
2023/12/07 16:08:33;;;;;;;91.47;41.65;;;1.00;99.90;;;;;;4806220;29;20058;-77